createdAt,value
2022-10-25T00:01:26.899Z,101023.44
2022-10-25T00:04:30.523Z,101030.94
2022-10-25T00:07:34.243Z,101027.38
2022-10-25T00:10:38.671Z,101016.63
2022-10-25T00:13:42.232Z,101017.72
2022-10-25T00:16:47.199Z,101030.81
2022-10-25T00:19:51.036Z,101027.28
2022-10-25T00:22:54.907Z,101026.41
2022-10-25T00:26:03.212Z,101037.78
2022-10-25T00:29:07.216Z,101031.66
2022-10-25T00:32:12.213Z,101037.84
2022-10-25T00:35:15.875Z,101040.63
2022-10-25T00:38:19.467Z,101035.38
2022-10-25T00:41:25.931Z,101038.97
2022-10-25T00:44:56.163Z,101048.53
2022-10-25T00:48:05.864Z,101050.94
2022-10-25T00:51:10.318Z,101048.06
2022-10-25T00:57:34.034Z,101054.03
2022-10-25T01:00:37.864Z,101047.75
2022-10-25T01:03:45.270Z,101054.47
2022-10-25T01:06:52.834Z,101059.88
2022-10-25T01:09:56.413Z,101058.88
2022-10-25T01:13:03.182Z,101057.78
2022-10-25T01:16:20.890Z,101060.97
2022-10-25T01:19:54.237Z,101060.91
2022-10-25T01:23:18.292Z,101059.88
2022-10-25T01:26:59.859Z,101063.25
2022-10-25T01:30:14.301Z,101064.00
2022-10-25T01:33:29.007Z,101060.41
2022-10-25T01:36:46.211Z,101055.78
2022-10-25T01:39:58.455Z,101057.63
2022-10-25T01:43:10.462Z,101065.31
2022-10-25T01:46:26.379Z,101053.00
2022-10-25T01:49:41.559Z,101061.66
2022-10-25T01:52:45.188Z,101068.66
2022-10-25T01:55:56.684Z,101055.47
2022-10-25T01:59:30.579Z,101061.47
2022-10-25T02:02:53.946Z,101063.13
2022-10-25T02:06:16.587Z,101061.41
2022-10-25T02:09:31.311Z,101047.31
2022-10-25T02:12:49.698Z,101041.16
2022-10-25T02:16:01.519Z,101049.91
2022-10-25T02:19:10.524Z,101049.06
2022-10-25T02:22:18.790Z,101053.63
2022-10-25T02:25:23.373Z,101066.00
2022-10-25T02:28:30.118Z,101066.00
2022-10-25T02:31:38.085Z,101064.09
2022-10-25T02:34:42.741Z,101066.78
2022-10-25T02:37:48.255Z,101068.53
2022-10-25T02:40:52.128Z,101066.78
2022-10-25T02:43:55.754Z,101063.25
2022-10-25T02:46:59.782Z,101065.00
2022-10-25T02:50:03.399Z,101059.94
2022-10-25T02:53:08.456Z,101072.19
2022-10-25T02:56:15.513Z,101067.63
2022-10-25T02:59:21.248Z,101066.84
2022-10-25T03:02:24.900Z,101063.41
2022-10-25T03:05:28.473Z,101070.47
2022-10-25T03:08:33.781Z,101076.47
2022-10-25T03:11:37.569Z,101077.44
2022-10-25T03:14:41.154Z,101087.06
2022-10-25T03:17:44.910Z,101083.56
2022-10-25T03:20:48.675Z,101087.91
2022-10-25T03:23:54.282Z,101089.69
2022-10-25T03:26:57.804Z,101093.00
2022-10-25T03:30:01.384Z,101087.78
2022-10-25T03:33:05.084Z,101094.03
2022-10-25T03:36:09.803Z,101086.00
2022-10-25T03:39:15.498Z,101094.97
2022-10-25T03:42:19.022Z,101096.72
2022-10-25T03:45:24.518Z,101108.13
2022-10-25T03:48:28.447Z,101102.59
2022-10-25T03:51:32.019Z,101095.81
2022-10-25T03:54:36.998Z,101102.66
2022-10-25T03:57:40.587Z,101103.66
2022-10-25T04:00:44.217Z,101102.91
2022-10-25T04:03:47.851Z,101109.25
2022-10-25T04:06:51.397Z,101109.25
2022-10-25T04:09:56.372Z,101115.34
2022-10-25T04:13:00.054Z,101117.06
2022-10-25T04:16:08.405Z,101124.81
2022-10-25T04:19:11.986Z,101127.59
2022-10-25T04:22:15.590Z,101125.03
2022-10-25T04:25:20.643Z,101127.47
2022-10-25T04:28:24.568Z,101131.00
2022-10-25T04:31:28.116Z,101126.66
2022-10-25T04:34:31.891Z,101127.69
2022-10-25T04:37:35.503Z,101132.03
2022-10-25T04:40:40.460Z,101127.69
2022-10-25T04:43:44.147Z,101137.41
2022-10-25T04:46:49.002Z,101137.69
2022-10-25T04:49:53.024Z,101145.75
2022-10-25T04:52:56.736Z,101153.75
2022-10-25T04:56:03.835Z,101147.72
2022-10-25T04:59:07.450Z,101150.41
2022-10-25T05:02:11.303Z,101152.28
2022-10-25T05:05:15.087Z,101155.81
2022-10-25T05:08:18.647Z,101163.69
2022-10-25T05:11:25.881Z,101160.22
2022-10-25T05:14:29.629Z,101167.16
2022-10-25T05:17:33.805Z,101168.97
2022-10-25T05:20:37.409Z,101175.03
2022-10-25T05:23:41.434Z,101169.78
2022-10-25T05:26:46.551Z,101171.53
2022-10-25T05:29:50.112Z,101180.25
2022-10-25T05:32:53.699Z,101184.63
2022-10-25T05:35:57.391Z,101182.81
2022-10-25T05:39:01.991Z,101182.00
2022-10-25T05:42:07.407Z,101195.16
2022-10-25T05:45:11.849Z,101195.09
2022-10-25T05:48:15.703Z,101187.97
2022-10-25T05:51:38.575Z,101199.44
2022-10-25T05:54:42.166Z,101198.53
2022-10-25T05:57:52.714Z,101201.97
2022-10-25T06:00:59.905Z,101199.19
2022-10-25T06:04:03.925Z,101209.78
2022-10-25T06:07:07.668Z,101208.94
2022-10-25T06:10:11.715Z,101209.78
2022-10-25T06:13:16.664Z,101209.72
2022-10-25T06:16:22.064Z,101219.31
2022-10-25T06:19:25.761Z,101219.31
2022-10-25T06:22:29.378Z,101221.00
2022-10-25T06:25:33.047Z,101227.94
2022-10-25T06:28:38.684Z,101221.88
2022-10-25T06:31:43.451Z,101225.50
2022-10-25T06:34:47.018Z,101231.78
2022-10-25T06:37:50.743Z,101225.63
2022-10-25T06:40:59.007Z,101237.00
2022-10-25T06:44:06.443Z,101235.19
2022-10-25T06:47:17.435Z,101248.34
2022-10-25T06:50:21.651Z,101252.44
2022-10-25T06:53:25.315Z,101255.06
2022-10-25T06:56:30.429Z,101261.91
2022-10-25T06:59:35.564Z,101261.06
2022-10-25T07:02:39.175Z,101270.63
2022-10-25T07:05:42.776Z,101275.78
2022-10-25T07:08:48.420Z,101274.91
2022-10-25T07:11:52.214Z,101284.50
2022-10-25T07:14:57.166Z,101292.31
2022-10-25T07:18:00.675Z,101292.38
2022-10-25T07:21:07.117Z,101291.38
2022-10-25T07:24:11.903Z,101286.31
2022-10-25T07:27:16.641Z,101286.31
2022-10-25T07:30:21.599Z,101303.53
2022-10-25T07:33:25.171Z,101301.78
2022-10-25T07:36:28.968Z,101301.50
2022-10-25T07:39:32.520Z,101308.94
2022-10-25T07:42:36.071Z,101308.03
2022-10-25T07:45:41.467Z,101307.16
2022-10-25T07:48:45.136Z,101308.28
2022-10-25T07:51:48.679Z,101305.13
2022-10-25T07:54:52.180Z,101315.03
2022-10-25T07:58:02.436Z,101321.00
2022-10-25T08:01:10.919Z,101319.16
2022-10-25T08:04:14.541Z,101321.56
2022-10-25T08:07:18.241Z,101324.50
2022-10-25T08:10:23.189Z,101325.22
2022-10-25T08:13:27.126Z,101330.56
2022-10-25T08:16:32.123Z,101325.97
2022-10-25T08:19:35.808Z,101329.53
2022-10-25T08:22:39.506Z,101333.03
2022-10-25T08:25:43.903Z,101337.88
2022-10-25T08:28:47.513Z,101342.66
2022-10-25T08:31:52.666Z,101346.50
2022-10-25T08:34:56.291Z,101343.59
2022-10-25T08:38:02.270Z,101350.97
2022-10-25T08:41:16.833Z,101350.59
2022-10-25T08:44:43.096Z,101353.84
2022-10-25T08:47:54.154Z,101356.56
2022-10-25T08:51:06.070Z,101355.84
2022-10-25T08:54:28.078Z,101348.94
2022-10-25T08:57:39.515Z,101357.72
2022-10-25T09:00:48.228Z,101366.78
2022-10-25T09:03:53.314Z,101374.66
2022-10-25T09:07:15.316Z,101376.28
2022-10-25T09:10:39.075Z,101387.94
2022-10-25T09:13:53.905Z,101376.50
2022-10-25T09:17:07.959Z,101386.97
2022-10-25T09:20:22.506Z,101378.72
2022-10-25T09:23:31.644Z,101387.59
2022-10-25T09:26:49.455Z,101393.28
2022-10-25T09:30:05.209Z,101396.59
2022-10-25T09:36:28.947Z,101408.91
2022-10-25T09:39:41.554Z,101410.34
2022-10-25T09:42:52.915Z,101413.44
2022-10-25T09:46:01.667Z,101419.25
2022-10-25T09:49:21.872Z,101418.56
2022-10-25T09:52:38.320Z,101414.69
2022-10-25T09:55:53.924Z,101428.56
2022-10-25T09:59:01.325Z,101430.38
2022-10-25T10:02:05.668Z,101425.25
2022-10-25T10:05:16.529Z,101433.84
2022-10-25T10:08:21.548Z,101439.41
2022-10-25T10:11:26.382Z,101439.94
2022-10-25T10:14:39.219Z,101442.66
2022-10-25T10:17:42.780Z,101434.38
2022-10-25T10:21:01.645Z,101430.56
2022-10-25T10:24:09.085Z,101435.56
2022-10-25T10:27:26.301Z,101440.59
2022-10-25T10:30:32.182Z,101442.56
2022-10-25T10:33:39.348Z,101444.81
2022-10-25T10:36:45.872Z,101438.03
2022-10-25T10:39:54.392Z,101449.44
2022-10-25T10:42:59.182Z,101438.63
2022-10-25T10:46:07.157Z,101444.91
2022-10-25T10:49:12.254Z,101449.84
2022-10-25T10:52:31.882Z,101453.38
2022-10-25T10:55:40.612Z,101438.03
2022-10-25T10:58:53.598Z,101433.53
2022-10-25T11:01:58.086Z,101434.50
2022-10-25T11:05:01.827Z,101441.88
2022-10-25T11:08:20.041Z,101448.41
2022-10-25T11:11:26.124Z,101442.84
2022-10-25T11:14:29.856Z,101456.56
2022-10-25T11:17:44.851Z,101451.06
2022-10-25T11:20:54.754Z,101461.63
2022-10-25T11:24:13.704Z,101465.56
2022-10-25T11:27:35.016Z,101469.84
2022-10-25T11:30:48.726Z,101467.34
2022-10-25T11:34:10.136Z,101465.81
2022-10-25T11:37:22.282Z,101470.72
2022-10-25T11:40:34.364Z,101463.06
2022-10-25T11:44:03.332Z,101467.06
2022-10-25T11:47:24.628Z,101473.88
2022-10-25T11:50:41.031Z,101477.81
2022-10-25T11:54:09.546Z,101482.63
2022-10-25T11:57:29.260Z,101478.34
2022-10-25T12:00:53.441Z,101482.88
2022-10-25T12:04:16.570Z,101481.63
2022-10-25T12:07:30.101Z,101471.94
2022-10-25T12:10:39.772Z,101480.94
2022-10-25T12:13:50.404Z,101477.44
2022-10-25T12:16:57.855Z,101473.78
2022-10-25T12:20:06.832Z,101472.28
2022-10-25T12:23:18.131Z,101477.72
2022-10-25T12:26:31.460Z,101480.94
2022-10-25T12:29:40.607Z,101486.41
2022-10-25T12:32:52.226Z,101493.28
2022-10-25T12:36:05.127Z,101488.06
2022-10-25T12:39:17.910Z,101493.88
2022-10-25T12:42:27.110Z,101506.56
2022-10-25T12:46:14.984Z,101500.53
2022-10-25T12:49:57.254Z,101504.69
2022-10-25T12:54:08.269Z,101507.56
2022-10-25T12:57:26.761Z,101508.81
2022-10-25T13:00:41.142Z,101511.03
2022-10-25T13:04:28.786Z,101506.19
2022-10-25T13:07:37.304Z,101492.06
2022-10-25T13:10:47.496Z,101488.09
2022-10-25T13:13:54.263Z,101486.66
2022-10-25T13:17:59.933Z,101492.75
2022-10-25T13:21:06.783Z,101487.63
2022-10-25T13:24:11.848Z,101492.69
2022-10-25T13:27:22.558Z,101492.22
2022-10-25T13:30:32.046Z,101500.00
2022-10-25T13:33:36.161Z,101500.59
2022-10-25T13:36:51.649Z,101502.19
2022-10-25T13:39:57.551Z,101492.91
2022-10-25T13:43:05.747Z,101495.31
2022-10-25T13:46:12.682Z,101489.59
2022-10-25T13:49:44.774Z,101497.09
2022-10-25T13:53:03.456Z,101491.97
2022-10-25T13:56:14.974Z,101494.09
2022-10-25T13:59:59.873Z,101499.25
2022-10-25T14:03:47.486Z,101502.03
2022-10-25T14:06:51.072Z,101515.69
2022-10-25T14:09:55.336Z,101516.63
2022-10-25T14:13:22.952Z,101528.38
2022-10-25T14:16:32.270Z,101533.00
2022-10-25T14:19:43.407Z,101530.06
2022-10-25T14:22:57.414Z,101524.56
2022-10-25T14:26:03.692Z,101524.47
2022-10-25T14:29:22.995Z,101519.44
2022-10-25T14:32:26.564Z,101522.06
2022-10-25T14:35:35.142Z,101514.03
2022-10-25T14:38:53.335Z,101515.88
2022-10-25T14:41:59.192Z,101517.13
2022-10-25T14:45:04.222Z,101513.94
2022-10-25T14:48:11.070Z,101515.13
2022-10-25T14:51:22.244Z,101519.88
2022-10-25T14:54:31.066Z,101518.19
2022-10-25T14:57:36.282Z,101527.00
2022-10-25T15:00:41.823Z,101520.69
2022-10-25T15:03:48.991Z,101519.25
2022-10-25T15:06:52.674Z,101517.06
2022-10-25T15:10:00.137Z,101520.91
2022-10-25T15:13:06.033Z,101521.94
2022-10-25T15:16:38.727Z,101523.41
2022-10-25T15:20:02.346Z,101517.22
2022-10-25T15:23:16.734Z,101519.03
2022-10-25T15:26:29.308Z,101523.47
2022-10-25T15:32:58.359Z,101528.44
2022-10-25T15:36:05.404Z,101535.16
2022-10-25T15:39:27.819Z,101537.97
2022-10-25T15:42:31.323Z,101530.53
2022-10-25T15:45:37.925Z,101536.28
2022-10-25T15:48:45.272Z,101526.50
2022-10-25T15:51:50.511Z,101533.97
2022-10-25T15:54:54.383Z,101538.88
2022-10-25T15:57:57.930Z,101546.22
2022-10-25T16:01:01.535Z,101554.38
2022-10-25T16:04:06.720Z,101552.06
2022-10-25T16:07:12.455Z,101557.56
2022-10-25T16:10:16.652Z,101550.63
2022-10-25T16:13:28.981Z,101549.31
2022-10-25T16:16:40.335Z,101549.53
2022-10-25T16:19:45.829Z,101551.59
2022-10-25T16:22:50.501Z,101558.16
2022-10-25T16:25:56.343Z,101566.56
2022-10-25T16:28:59.995Z,101568.63
2022-10-25T16:32:04.115Z,101573.31
2022-10-25T16:35:11.080Z,101577.91
2022-10-25T16:38:16.583Z,101587.88
2022-10-25T16:41:25.798Z,101590.78
2022-10-25T16:44:29.435Z,101599.91
2022-10-25T16:47:33.059Z,101591.16
2022-10-25T16:50:38.194Z,101598.31
2022-10-25T16:53:42.198Z,101598.69
2022-10-25T16:56:45.831Z,101598.31
2022-10-25T16:59:50.605Z,101593.28
2022-10-25T17:02:54.790Z,101591.84
2022-10-25T17:06:00.512Z,101593.91
2022-10-25T17:09:08.340Z,101604.44
2022-10-25T17:12:12.624Z,101598.72
2022-10-25T17:15:37.491Z,101590.91
2022-10-25T17:18:41.522Z,101592.75
2022-10-25T17:21:46.549Z,101598.53
2022-10-25T17:24:50.064Z,101603.19
2022-10-25T17:27:54.759Z,101598.75
2022-10-25T17:30:58.910Z,101606.91
2022-10-25T17:34:03.884Z,101607.91
2022-10-25T17:37:08.797Z,101606.13
2022-10-25T17:40:14.812Z,101615.06
2022-10-25T17:43:18.429Z,101607.25
2022-10-25T17:46:25.911Z,101616.88
2022-10-25T17:49:29.543Z,101621.47
2022-10-25T17:52:34.530Z,101622.53
2022-10-25T17:55:41.158Z,101625.41
2022-10-25T17:58:47.194Z,101631.63
2022-10-25T18:01:50.908Z,101630.00
2022-10-25T18:05:19.047Z,101633.69
2022-10-25T18:08:20.102Z,101634.72
2022-10-25T18:11:26.054Z,101634.88
2022-10-25T18:14:29.675Z,101646.22
2022-10-25T18:17:33.505Z,101642.84
2022-10-25T18:20:40.483Z,101640.34
2022-10-25T18:23:45.593Z,101646.44
2022-10-25T18:26:49.211Z,101651.84
2022-10-25T18:29:52.875Z,101651.41
2022-10-25T18:32:56.531Z,101650.50
2022-10-25T18:36:01.003Z,101648.28
2022-10-25T18:39:06.309Z,101647.94
2022-10-25T18:42:10.111Z,101649.84
2022-10-25T18:45:13.721Z,101648.28
2022-10-25T18:48:17.552Z,101648.31
2022-10-25T18:51:24.603Z,101651.91
2022-10-25T18:54:29.543Z,101645.00
2022-10-25T18:57:33.207Z,101646.81
2022-10-25T19:00:36.779Z,101645.16
2022-10-25T19:03:41.627Z,101639.09
2022-10-25T19:06:45.633Z,101640.13
2022-10-25T19:09:50.576Z,101637.59
2022-10-25T19:12:54.143Z,101650.78
2022-10-25T19:15:58.968Z,101643.91
2022-10-25T19:19:07.088Z,101643.06
2022-10-25T19:22:10.688Z,101644.81
2022-10-25T19:25:18.106Z,101650.28
2022-10-25T19:28:24.580Z,101648.69
2022-10-25T19:31:29.552Z,101645.19
2022-10-25T19:34:33.495Z,101642.44
2022-10-25T19:37:40.091Z,101636.97
2022-10-25T19:40:47.238Z,101640.81
2022-10-25T19:43:51.639Z,101640.72
2022-10-25T19:46:55.245Z,101638.09
2022-10-25T19:49:58.901Z,101641.38
2022-10-25T19:53:02.528Z,101636.47
2022-10-25T19:56:11.456Z,101635.69
2022-10-25T19:59:15.412Z,101648.97
2022-10-25T20:02:19.289Z,101649.06
2022-10-25T20:05:23.830Z,101648.34
2022-10-25T20:08:27.743Z,101645.88
2022-10-25T20:11:34.007Z,101664.31
2022-10-25T20:14:37.751Z,101660.03
2022-10-25T20:17:41.571Z,101663.66
2022-10-25T20:20:45.207Z,101664.41
2022-10-25T20:23:54.930Z,101665.47
2022-10-25T20:27:01.977Z,101670.78
2022-10-25T20:30:06.919Z,101665.50
2022-10-25T20:33:10.575Z,101667.31
2022-10-25T20:36:15.479Z,101666.56
2022-10-25T20:39:19.309Z,101665.78
2022-10-25T20:42:24.368Z,101667.59
2022-10-25T20:45:44.069Z,101676.47
2022-10-25T20:48:49.033Z,101670.50
2022-10-25T20:51:52.743Z,101679.31
2022-10-25T20:58:06.787Z,101682.97
2022-10-25T21:01:11.159Z,101686.47
2022-10-25T21:04:21.827Z,101687.31
2022-10-25T21:07:34.508Z,101691.69
2022-10-25T21:10:38.453Z,101690.78
2022-10-25T21:13:45.055Z,101688.22
2022-10-25T21:16:51.229Z,101690.00
2022-10-25T21:19:54.929Z,101684.75
2022-10-25T21:22:58.643Z,101693.56
2022-10-25T21:26:03.918Z,101692.66
2022-10-25T21:29:09.567Z,101690.19
2022-10-25T21:32:13.146Z,101691.06
2022-10-25T21:35:17.830Z,101685.91
2022-10-25T21:38:21.414Z,101684.22
2022-10-25T21:41:27.108Z,101686.88
2022-10-25T21:44:32.243Z,101685.97
2022-10-25T21:47:36.307Z,101690.41
2022-10-25T21:50:39.851Z,101689.56
2022-10-25T21:53:43.890Z,101693.97
2022-10-25T21:56:47.613Z,101697.63
2022-10-25T21:59:52.597Z,101692.38
2022-10-25T22:02:57.054Z,101686.38
2022-10-25T22:06:00.726Z,101685.47
2022-10-25T22:09:05.254Z,101689.81
2022-10-25T22:12:08.958Z,101689.09
2022-10-25T22:15:13.951Z,101687.44
2022-10-25T22:18:17.551Z,101682.31
2022-10-25T22:21:23.072Z,101689.28
2022-10-25T22:24:26.702Z,101690.22
2022-10-25T22:27:30.278Z,101687.56
2022-10-25T22:30:35.241Z,101682.50
2022-10-25T22:33:39.256Z,101677.34
2022-10-25T22:36:43.256Z,101672.16
2022-10-25T22:39:46.810Z,101672.19
2022-10-25T22:42:50.378Z,101669.56
2022-10-25T22:45:55.510Z,101677.47
2022-10-25T22:49:01.380Z,101681.00
2022-10-25T22:52:05.759Z,101673.13
2022-10-25T22:55:10.539Z,101669.69
2022-10-25T22:58:14.082Z,101682.97
2022-10-25T23:01:21.748Z,101684.78
2022-10-25T23:04:25.332Z,101677.84
2022-10-25T23:07:29.070Z,101677.00
2022-10-25T23:10:32.632Z,101681.38
2022-10-25T23:13:39.219Z,101681.41
2022-10-25T23:16:44.166Z,101679.66
2022-10-25T23:19:49.143Z,101669.09
2022-10-25T23:22:52.726Z,101678.81
2022-10-25T23:26:01.087Z,101683.22
2022-10-25T23:29:05.961Z,101675.31
2022-10-25T23:32:11.198Z,101671.03
2022-10-25T23:35:14.959Z,101670.16
2022-10-25T23:38:18.595Z,101670.16
2022-10-25T23:41:23.294Z,101671.78
2022-10-25T23:44:26.954Z,101670.09
2022-10-25T23:47:32.336Z,101672.78
2022-10-25T23:50:35.931Z,101668.47
2022-10-25T23:53:40.172Z,101664.91
2022-10-25T23:56:43.849Z,101661.44
2022-10-25T23:59:47.423Z,101666.66
